sensor_id;sensor_type;location;lat;lon;timestamp;temperature;humidity
66096;SHT31;53861;53.422;14.530;2024-02-21T00:00:55;7.31;99.99
66096;SHT31;53861;53.422;14.530;2024-02-21T00:03:23;7.41;99.79
66096;SHT31;53861;53.422;14.530;2024-02-21T00:05:51;7.45;99.67
66096;SHT31;53861;53.422;14.530;2024-02-21T00:08:18;7.32;99.99
66096;SHT31;53861;53.422;14.530;2024-02-21T00:10:45;7.43;99.83
66096;SHT31;53861;53.422;14.530;2024-02-21T00:13:12;7.40;99.87
66096;SHT31;53861;53.422;14.530;2024-02-21T00:15:39;7.31;99.86
66096;SHT31;53861;53.422;14.530;2024-02-21T00:18:07;7.32;99.99
66096;SHT31;53861;53.422;14.530;2024-02-21T00:20:35;7.28;99.99
66096;SHT31;53861;53.422;14.530;2024-02-21T00:23:03;7.27;99.99
66096;SHT31;53861;53.422;14.530;2024-02-21T00:25:30;7.27;99.99
66096;SHT31;53861;53.422;14.530;2024-02-21T00:27:58;7.25;99.99
66096;SHT31;53861;53.422;14.530;2024-02-21T00:30:26;7.18;99.99
66096;SHT31;53861;53.422;14.530;2024-02-21T00:32:53;7.24;99.99
66096;SHT31;53861;53.422;14.530;2024-02-21T00:35:20;7.23;99.99
66096;SHT31;53861;53.422;14.530;2024-02-21T00:37:49;7.18;99.99
66096;SHT31;53861;53.422;14.530;2024-02-21T00:40:16;7.18;99.99
66096;SHT31;53861;53.422;14.530;2024-02-21T00:42:46;7.15;99.99
66096;SHT31;53861;53.422;14.530;2024-02-21T00:45:14;7.14;99.99
66096;SHT31;53861;53.422;14.530;2024-02-21T00:47:41;7.17;99.99
66096;SHT31;53861;53.422;14.530;2024-02-21T00:50:09;7.21;99.99
66096;SHT31;53861;53.422;14.530;2024-02-21T00:52:36;7.17;99.99
66096;SHT31;53861;53.422;14.530;2024-02-21T00:55:06;7.08;99.99
66096;SHT31;53861;53.422;14.530;2024-02-21T00:57:33;7.11;99.99
66096;SHT31;53861;53.422;14.530;2024-02-21T01:00:01;7.10;99.99
66096;SHT31;53861;53.422;14.530;2024-02-21T01:02:28;7.08;99.99
66096;SHT31;53861;53.422;14.530;2024-02-21T01:04:57;7.10;99.99
66096;SHT31;53861;53.422;14.530;2024-02-21T01:07:24;7.04;99.99
66096;SHT31;53861;53.422;14.530;2024-02-21T01:09:51;7.07;99.99
66096;SHT31;53861;53.422;14.530;2024-02-21T01:12:20;7.01;99.99
66096;SHT31;53861;53.422;14.530;2024-02-21T01:14:47;6.99;99.99
66096;SHT31;53861;53.422;14.530;2024-02-21T01:17:15;7.03;99.99
66096;SHT31;53861;53.422;14.530;2024-02-21T01:19:42;7.14;99.99
66096;SHT31;53861;53.422;14.530;2024-02-21T01:22:10;7.08;99.99
66096;SHT31;53861;53.422;14.530;2024-02-21T01:24:37;7.08;99.99
66096;SHT31;53861;53.422;14.530;2024-02-21T01:27:04;7.10;99.99
66096;SHT31;53861;53.422;14.530;2024-02-21T01:29:33;7.18;99.99
66096;SHT31;53861;53.422;14.530;2024-02-21T01:32:00;7.20;99.99
66096;SHT31;53861;53.422;14.530;2024-02-21T01:34:27;7.15;99.99
66096;SHT31;53861;53.422;14.530;2024-02-21T01:36:54;7.11;99.99
66096;SHT31;53861;53.422;14.530;2024-02-21T01:39:22;7.10;99.99
66096;SHT31;53861;53.422;14.530;2024-02-21T01:41:49;7.10;99.99
66096;SHT31;53861;53.422;14.530;2024-02-21T01:44:16;7.14;99.99
66096;SHT31;53861;53.422;14.530;2024-02-21T01:46:45;7.14;99.99
66096;SHT31;53861;53.422;14.530;2024-02-21T01:49:12;7.20;99.99
66096;SHT31;53861;53.422;14.530;2024-02-21T01:51:40;7.21;99.99
66096;SHT31;53861;53.422;14.530;2024-02-21T01:54:07;7.13;99.99
66096;SHT31;53861;53.422;14.530;2024-02-21T01:56:35;7.14;99.99
66096;SHT31;53861;53.422;14.530;2024-02-21T01:59:02;7.14;99.99
66096;SHT31;53861;53.422;14.530;2024-02-21T02:01:30;7.21;99.99
66096;SHT31;53861;53.422;14.530;2024-02-21T02:03:59;7.25;99.99
66096;SHT31;53861;53.422;14.530;2024-02-21T02:06:26;7.06;99.99
66096;SHT31;53861;53.422;14.530;2024-02-21T02:08:54;7.10;99.99
66096;SHT31;53861;53.422;14.530;2024-02-21T02:11:21;7.18;99.99
66096;SHT31;53861;53.422;14.530;2024-02-21T02:13:49;7.14;99.99
66096;SHT31;53861;53.422;14.530;2024-02-21T02:16:16;7.20;99.99
66096;SHT31;53861;53.422;14.530;2024-02-21T02:18:43;7.20;99.99
66096;SHT31;53861;53.422;14.530;2024-02-21T02:21:16;7.13;99.99
66096;SHT31;53861;53.422;14.530;2024-02-21T02:23:51;7.14;99.99
66096;SHT31;53861;53.422;14.530;2024-02-21T02:26:19;7.15;99.99
66096;SHT31;53861;53.422;14.530;2024-02-21T02:28:46;7.21;99.99
66096;SHT31;53861;53.422;14.530;2024-02-21T02:31:13;7.24;99.99
66096;SHT31;53861;53.422;14.530;2024-02-21T02:33:42;7.17;99.99
66096;SHT31;53861;53.422;14.530;2024-02-21T02:36:10;7.08;99.99
66096;SHT31;53861;53.422;14.530;2024-02-21T02:38:37;7.15;99.99
66096;SHT31;53861;53.422;14.530;2024-02-21T02:41:06;7.21;99.99
66096;SHT31;53861;53.422;14.530;2024-02-21T02:43:33;7.17;99.99
66096;SHT31;53861;53.422;14.530;2024-02-21T02:46:00;7.21;99.99
66096;SHT31;53861;53.422;14.530;2024-02-21T02:48:27;7.15;99.99
66096;SHT31;53861;53.422;14.530;2024-02-21T02:50:55;7.04;99.99
66096;SHT31;53861;53.422;14.530;2024-02-21T02:53:22;7.00;99.99
66096;SHT31;53861;53.422;14.530;2024-02-21T02:55:49;7.08;99.99
66096;SHT31;53861;53.422;14.530;2024-02-21T02:58:18;7.04;99.99
66096;SHT31;53861;53.422;14.530;2024-02-21T03:00:45;7.10;99.99
66096;SHT31;53861;53.422;14.530;2024-02-21T03:03:12;7.11;99.99
66096;SHT31;53861;53.422;14.530;2024-02-21T03:05:39;7.13;99.99
66096;SHT31;53861;53.422;14.530;2024-02-21T03:08:07;7.10;99.99
66096;SHT31;53861;53.422;14.530;2024-02-21T03:10:34;7.11;99.99
66096;SHT31;53861;53.422;14.530;2024-02-21T03:13:01;7.11;99.99
66096;SHT31;53861;53.422;14.530;2024-02-21T03:15:30;7.11;99.99
66096;SHT31;53861;53.422;14.530;2024-02-21T03:17:58;7.13;99.99
66096;SHT31;53861;53.422;14.530;2024-02-21T03:20:25;6.97;99.99
66096;SHT31;53861;53.422;14.530;2024-02-21T03:22:52;6.92;99.99
66096;SHT31;53861;53.422;14.530;2024-02-21T03:25:19;6.90;99.99
66096;SHT31;53861;53.422;14.530;2024-02-21T03:27:47;6.96;99.99
66096;SHT31;53861;53.422;14.530;2024-02-21T03:30:14;6.93;99.99
66096;SHT31;53861;53.422;14.530;2024-02-21T03:32:43;6.87;99.99
66096;SHT31;53861;53.422;14.530;2024-02-21T03:35:10;6.90;99.99
66096;SHT31;53861;53.422;14.530;2024-02-21T03:37:37;6.90;99.99
66096;SHT31;53861;53.422;14.530;2024-02-21T03:40:08;6.92;99.99
66096;SHT31;53861;53.422;14.530;2024-02-21T03:42:35;6.93;99.99
66096;SHT31;53861;53.422;14.530;2024-02-21T03:45:03;7.00;99.99
66096;SHT31;53861;53.422;14.530;2024-02-21T03:47:30;6.94;99.99
66096;SHT31;53861;53.422;14.530;2024-02-21T03:49:59;6.94;99.99
66096;SHT31;53861;53.422;14.530;2024-02-21T03:52:26;7.01;99.99
66096;SHT31;53861;53.422;14.530;2024-02-21T03:54:53;6.97;99.99
66096;SHT31;53861;53.422;14.530;2024-02-21T03:57:21;6.99;99.99
66096;SHT31;53861;53.422;14.530;2024-02-21T03:59:50;6.97;99.99
66096;SHT31;53861;53.422;14.530;2024-02-21T04:02:18;6.96;99.99
66096;SHT31;53861;53.422;14.530;2024-02-21T04:04:45;6.90;99.99
66096;SHT31;53861;53.422;14.530;2024-02-21T04:07:15;6.93;99.99
66096;SHT31;53861;53.422;14.530;2024-02-21T04:09:42;6.96;99.99
66096;SHT31;53861;53.422;14.530;2024-02-21T04:12:09;7.00;99.99
66096;SHT31;53861;53.422;14.530;2024-02-21T04:14:37;6.94;99.99
66096;SHT31;53861;53.422;14.530;2024-02-21T04:17:05;6.97;99.99
66096;SHT31;53861;53.422;14.530;2024-02-21T04:19:33;6.99;99.99
66096;SHT31;53861;53.422;14.530;2024-02-21T04:22:00;7.01;99.99
66096;SHT31;53861;53.422;14.530;2024-02-21T04:24:29;6.99;99.99
66096;SHT31;53861;53.422;14.530;2024-02-21T04:26:56;6.97;99.99
66096;SHT31;53861;53.422;14.530;2024-02-21T04:29:23;7.00;99.99
66096;SHT31;53861;53.422;14.530;2024-02-21T04:31:51;7.06;99.99
66096;SHT31;53861;53.422;14.530;2024-02-21T04:34:18;7.04;99.99
66096;SHT31;53861;53.422;14.530;2024-02-21T04:36:45;7.06;99.99
66096;SHT31;53861;53.422;14.530;2024-02-21T04:39:12;7.06;99.99
66096;SHT31;53861;53.422;14.530;2024-02-21T04:41:41;7.07;99.99
66096;SHT31;53861;53.422;14.530;2024-02-21T04:44:08;7.03;99.99
66096;SHT31;53861;53.422;14.530;2024-02-21T04:46:35;6.99;99.99
66096;SHT31;53861;53.422;14.530;2024-02-21T04:49:03;7.07;99.99
66096;SHT31;53861;53.422;14.530;2024-02-21T04:51:30;7.04;99.99
66096;SHT31;53861;53.422;14.530;2024-02-21T04:53:57;7.03;99.99
66096;SHT31;53861;53.422;14.530;2024-02-21T04:56:25;7.07;99.99
66096;SHT31;53861;53.422;14.530;2024-02-21T04:58:53;7.06;99.99
66096;SHT31;53861;53.422;14.530;2024-02-21T05:01:20;7.06;99.99
66096;SHT31;53861;53.422;14.530;2024-02-21T05:03:48;7.01;99.99
66096;SHT31;53861;53.422;14.530;2024-02-21T05:06:15;7.04;99.99
66096;SHT31;53861;53.422;14.530;2024-02-21T05:08:42;7.08;99.99
66096;SHT31;53861;53.422;14.530;2024-02-21T05:11:10;7.13;99.99
66096;SHT31;53861;53.422;14.530;2024-02-21T05:13:37;7.10;99.99
66096;SHT31;53861;53.422;14.530;2024-02-21T05:16:06;7.10;99.99
66096;SHT31;53861;53.422;14.530;2024-02-21T05:18:33;7.11;99.99
66096;SHT31;53861;53.422;14.530;2024-02-21T05:21:01;7.08;99.99
66096;SHT31;53861;53.422;14.530;2024-02-21T05:23:28;7.17;99.99
66096;SHT31;53861;53.422;14.530;2024-02-21T05:25:55;7.11;99.99
66096;SHT31;53861;53.422;14.530;2024-02-21T05:28:22;7.21;99.99
66096;SHT31;53861;53.422;14.530;2024-02-21T05:30:50;7.25;99.99
66096;SHT31;53861;53.422;14.530;2024-02-21T05:33:18;7.23;99.99
66096;SHT31;53861;53.422;14.530;2024-02-21T05:35:48;7.17;99.99
66096;SHT31;53861;53.422;14.530;2024-02-21T05:38:15;7.18;99.99
66096;SHT31;53861;53.422;14.530;2024-02-21T05:40:44;7.15;99.99
66096;SHT31;53861;53.422;14.530;2024-02-21T05:43:11;7.18;99.99
66096;SHT31;53861;53.422;14.530;2024-02-21T05:45:39;7.21;99.99
66096;SHT31;53861;53.422;14.530;2024-02-21T05:48:06;7.32;99.99
66096;SHT31;53861;53.422;14.530;2024-02-21T05:50:35;7.30;99.99
66096;SHT31;53861;53.422;14.530;2024-02-21T05:53:03;7.40;99.99
66096;SHT31;53861;53.422;14.530;2024-02-21T05:55:30;7.40;99.99
66096;SHT31;53861;53.422;14.530;2024-02-21T05:57:57;7.37;99.99
66096;SHT31;53861;53.422;14.530;2024-02-21T06:00:24;7.41;99.99
66096;SHT31;53861;53.422;14.530;2024-02-21T06:02:52;7.40;99.99
66096;SHT31;53861;53.422;14.530;2024-02-21T06:05:19;7.45;99.99
66096;SHT31;53861;53.422;14.530;2024-02-21T06:07:48;7.47;99.99
66096;SHT31;53861;53.422;14.530;2024-02-21T06:10:15;7.41;99.99
66096;SHT31;53861;53.422;14.530;2024-02-21T06:12:43;7.43;99.99
66096;SHT31;53861;53.422;14.530;2024-02-21T06:15:10;7.44;99.99
66096;SHT31;53861;53.422;14.530;2024-02-21T06:17:37;7.48;99.99
66096;SHT31;53861;53.422;14.530;2024-02-21T06:20:05;7.47;99.99
66096;SHT31;53861;53.422;14.530;2024-02-21T06:22:33;7.54;99.99
66096;SHT31;53861;53.422;14.530;2024-02-21T06:25:01;7.47;99.99
66096;SHT31;53861;53.422;14.530;2024-02-21T06:27:29;7.52;99.99
66096;SHT31;53861;53.422;14.530;2024-02-21T06:29:56;7.57;99.99
66096;SHT31;53861;53.422;14.530;2024-02-21T06:32:23;7.59;99.99
66096;SHT31;53861;53.422;14.530;2024-02-21T06:34:51;7.57;99.99
66096;SHT31;53861;53.422;14.530;2024-02-21T06:37:18;7.61;99.99
66096;SHT31;53861;53.422;14.530;2024-02-21T06:39:45;7.64;99.99
66096;SHT31;53861;53.422;14.530;2024-02-21T06:42:14;7.58;99.99
66096;SHT31;53861;53.422;14.530;2024-02-21T06:44:41;7.58;99.99
66096;SHT31;53861;53.422;14.530;2024-02-21T06:47:08;7.57;99.99
66096;SHT31;53861;53.422;14.530;2024-02-21T06:49:36;7.57;99.99
66096;SHT31;53861;53.422;14.530;2024-02-21T06:52:04;7.68;99.99
66096;SHT31;53861;53.422;14.530;2024-02-21T06:54:31;7.65;99.99
66096;SHT31;53861;53.422;14.530;2024-02-21T06:56:59;7.61;99.99
66096;SHT31;53861;53.422;14.530;2024-02-21T06:59:27;7.62;99.99
66096;SHT31;53861;53.422;14.530;2024-02-21T07:01:55;7.55;99.99
66096;SHT31;53861;53.422;14.530;2024-02-21T07:04:22;7.67;99.99
66096;SHT31;53861;53.422;14.530;2024-02-21T07:06:50;7.69;99.99
66096;SHT31;53861;53.422;14.530;2024-02-21T07:09:17;7.68;99.99
66096;SHT31;53861;53.422;14.530;2024-02-21T07:11:44;7.61;99.99
66096;SHT31;53861;53.422;14.530;2024-02-21T07:14:13;7.67;99.99
66096;SHT31;53861;53.422;14.530;2024-02-21T07:16:42;7.67;99.99
66096;SHT31;53861;53.422;14.530;2024-02-21T07:19:09;7.64;99.99
66096;SHT31;53861;53.422;14.530;2024-02-21T07:21:37;7.67;99.99
66096;SHT31;53861;53.422;14.530;2024-02-21T07:24:07;7.68;99.99
66096;SHT31;53861;53.422;14.530;2024-02-21T07:26:34;7.67;99.99
66096;SHT31;53861;53.422;14.530;2024-02-21T07:29:02;7.71;99.99
66096;SHT31;53861;53.422;14.530;2024-02-21T07:31:29;7.68;99.99
66096;SHT31;53861;53.422;14.530;2024-02-21T07:33:57;7.68;99.99
66096;SHT31;53861;53.422;14.530;2024-02-21T07:36:28;7.68;99.99
66096;SHT31;53861;53.422;14.530;2024-02-21T07:38:56;7.69;99.99
66096;SHT31;53861;53.422;14.530;2024-02-21T07:41:23;7.75;99.99
66096;SHT31;53861;53.422;14.530;2024-02-21T07:43:50;7.69;99.99
66096;SHT31;53861;53.422;14.530;2024-02-21T07:46:18;7.82;99.99
66096;SHT31;53861;53.422;14.530;2024-02-21T07:48:46;7.76;99.99
66096;SHT31;53861;53.422;14.530;2024-02-21T07:51:15;7.74;99.99
66096;SHT31;53861;53.422;14.530;2024-02-21T07:53:44;7.76;99.99
66096;SHT31;53861;53.422;14.530;2024-02-21T07:56:12;7.83;99.99
66096;SHT31;53861;53.422;14.530;2024-02-21T07:58:39;7.85;99.99
66096;SHT31;53861;53.422;14.530;2024-02-21T08:01:07;7.98;99.99
66096;SHT31;53861;53.422;14.530;2024-02-21T08:03:34;7.92;99.99
66096;SHT31;53861;53.422;14.530;2024-02-21T08:06:03;8.05;99.99
66096;SHT31;53861;53.422;14.530;2024-02-21T08:08:32;8.06;99.99
66096;SHT31;53861;53.422;14.530;2024-02-21T08:10:59;8.13;99.99
66096;SHT31;53861;53.422;14.530;2024-02-21T08:13:27;8.14;99.99
66096;SHT31;53861;53.422;14.530;2024-02-21T08:15:57;8.12;99.99
66096;SHT31;53861;53.422;14.530;2024-02-21T08:18:25;8.25;99.99
66096;SHT31;53861;53.422;14.530;2024-02-21T08:20:52;8.29;99.99
66096;SHT31;53861;53.422;14.530;2024-02-21T08:23:22;8.22;99.99
66096;SHT31;53861;53.422;14.530;2024-02-21T08:25:51;8.29;99.99
66096;SHT31;53861;53.422;14.530;2024-02-21T08:28:19;8.32;99.99
66096;SHT31;53861;53.422;14.530;2024-02-21T08:30:46;8.34;99.99
66096;SHT31;53861;53.422;14.530;2024-02-21T08:33:14;8.43;99.99
66096;SHT31;53861;53.422;14.530;2024-02-21T08:35:42;8.49;99.99
66096;SHT31;53861;53.422;14.530;2024-02-21T08:38:09;8.47;99.99
66096;SHT31;53861;53.422;14.530;2024-02-21T08:40:37;8.57;99.99
66096;SHT31;53861;53.422;14.530;2024-02-21T08:43:07;8.53;99.99
66096;SHT31;53861;53.422;14.530;2024-02-21T08:45:35;8.49;99.99
66096;SHT31;53861;53.422;14.530;2024-02-21T08:48:03;8.49;99.99
66096;SHT31;53861;53.422;14.530;2024-02-21T08:50:30;8.59;99.99
66096;SHT31;53861;53.422;14.530;2024-02-21T08:52:57;8.56;99.99
66096;SHT31;53861;53.422;14.530;2024-02-21T08:55:25;8.50;99.99
66096;SHT31;53861;53.422;14.530;2024-02-21T08:57:52;8.37;99.99
66096;SHT31;53861;53.422;14.530;2024-02-21T09:00:21;8.39;99.99
66096;SHT31;53861;53.422;14.530;2024-02-21T09:02:52;8.49;99.99
66096;SHT31;53861;53.422;14.530;2024-02-21T09:05:21;8.53;99.99
66096;SHT31;53861;53.422;14.530;2024-02-21T09:07:49;8.63;99.99
66096;SHT31;53861;53.422;14.530;2024-02-21T09:10:17;8.78;99.99
66096;SHT31;53861;53.422;14.530;2024-02-21T09:12:44;8.85;99.99
66096;SHT31;53861;53.422;14.530;2024-02-21T09:15:12;8.61;99.99
66096;SHT31;53861;53.422;14.530;2024-02-21T09:17:40;8.65;99.99
66096;SHT31;53861;53.422;14.530;2024-02-21T09:20:08;8.61;99.99
66096;SHT31;53861;53.422;14.530;2024-02-21T09:22:37;8.57;99.99
66096;SHT31;53861;53.422;14.530;2024-02-21T09:25:06;8.56;99.99
66096;SHT31;53861;53.422;14.530;2024-02-21T09:27:33;8.78;99.99
66096;SHT31;53861;53.422;14.530;2024-02-21T09:30:01;9.00;99.99
66096;SHT31;53861;53.422;14.530;2024-02-21T09:32:30;8.91;99.96
66096;SHT31;53861;53.422;14.530;2024-02-21T09:34:59;9.05;99.99
66096;SHT31;53861;53.422;14.530;2024-02-21T09:37:27;9.07;99.92
66096;SHT31;53861;53.422;14.530;2024-02-21T09:39:54;9.10;99.69
66096;SHT31;53861;53.422;14.530;2024-02-21T09:42:21;9.00;99.45
66096;SHT31;53861;53.422;14.530;2024-02-21T09:44:51;9.10;99.60
66096;SHT31;53861;53.422;14.530;2024-02-21T09:47:22;9.04;99.73
66096;SHT31;53861;53.422;14.530;2024-02-21T09:49:51;9.11;99.74
66096;SHT31;53861;53.422;14.530;2024-02-21T09:52:21;9.10;99.66
66096;SHT31;53861;53.422;14.530;2024-02-21T09:54:48;9.11;99.45
66096;SHT31;53861;53.422;14.530;2024-02-21T09:57:18;8.94;99.30
66096;SHT31;53861;53.422;14.530;2024-02-21T09:59:47;8.98;99.44
66096;SHT31;53861;53.422;14.530;2024-02-21T10:02:16;9.05;99.56
66096;SHT31;53861;53.422;14.530;2024-02-21T10:04:43;9.08;99.58
66096;SHT31;53861;53.422;14.530;2024-02-21T10:07:11;9.14;99.01
66096;SHT31;53861;53.422;14.530;2024-02-21T10:09:39;9.23;99.07
66096;SHT31;53861;53.422;14.530;2024-02-21T10:12:09;9.21;98.95
66096;SHT31;53861;53.422;14.530;2024-02-21T10:14:36;9.18;98.94
66096;SHT31;53861;53.422;14.530;2024-02-21T10:17:04;9.18;98.88
66096;SHT31;53861;53.422;14.530;2024-02-21T10:19:35;9.19;98.53
66096;SHT31;53861;53.422;14.530;2024-02-21T10:22:04;9.25;98.77
66096;SHT31;53861;53.422;14.530;2024-02-21T10:24:33;9.31;98.77
66096;SHT31;53861;53.422;14.530;2024-02-21T10:27:06;9.42;98.44
66096;SHT31;53861;53.422;14.530;2024-02-21T10:29:35;9.36;98.07
66096;SHT31;53861;53.422;14.530;2024-02-21T10:32:09;9.56;98.33
66096;SHT31;53861;53.422;14.530;2024-02-21T10:34:38;9.47;98.35
66096;SHT31;53861;53.422;14.530;2024-02-21T10:37:07;9.56;98.51
66096;SHT31;53861;53.422;14.530;2024-02-21T10:39:35;9.75;97.76
66096;SHT31;53861;53.422;14.530;2024-02-21T10:42:05;9.67;97.47
66096;SHT31;53861;53.422;14.530;2024-02-21T10:44:37;9.82;97.16
66096;SHT31;53861;53.422;14.530;2024-02-21T10:47:08;10.08;97.13
66096;SHT31;53861;53.422;14.530;2024-02-21T10:49:38;10.07;96.09
66096;SHT31;53861;53.422;14.530;2024-02-21T10:52:10;10.21;96.53
66096;SHT31;53861;53.422;14.530;2024-02-21T10:54:44;10.10;96.49
66096;SHT31;53861;53.422;14.530;2024-02-21T10:57:14;9.91;96.53
66096;SHT31;53861;53.422;14.530;2024-02-21T10:59:44;10.20;96.54
66096;SHT31;53861;53.422;14.530;2024-02-21T11:02:11;10.38;96.01
66096;SHT31;53861;53.422;14.530;2024-02-21T11:04:39;11.24;94.23
66096;SHT31;53861;53.422;14.530;2024-02-21T11:07:07;11.05;93.83
66096;SHT31;53861;53.422;14.530;2024-02-21T11:09:35;11.37;92.49
66096;SHT31;53861;53.422;14.530;2024-02-21T11:12:03;11.15;93.52
66096;SHT31;53861;53.422;14.530;2024-02-21T11:14:32;11.15;94.25
66096;SHT31;53861;53.422;14.530;2024-02-21T11:17:01;11.33;92.88
66096;SHT31;53861;53.422;14.530;2024-02-21T11:19:32;11.75;92.41
66096;SHT31;53861;53.422;14.530;2024-02-21T11:21:59;11.78;91.63
66096;SHT31;53861;53.422;14.530;2024-02-21T11:24:28;12.60;90.32
66096;SHT31;53861;53.422;14.530;2024-02-21T11:26:56;14.39;86.68
66096;SHT31;53861;53.422;14.530;2024-02-21T11:29:24;17.05;82.55
66096;SHT31;53861;53.422;14.530;2024-02-21T11:31:53;16.10;79.02
66096;SHT31;53861;53.422;14.530;2024-02-21T11:34:20;16.85;80.08
66096;SHT31;53861;53.422;14.530;2024-02-21T11:36:48;17.87;74.52
66096;SHT31;53861;53.422;14.530;2024-02-21T11:39:20;16.04;78.84
66096;SHT31;53861;53.422;14.530;2024-02-21T11:41:48;15.95;78.30
66096;SHT31;53861;53.422;14.530;2024-02-21T11:44:27;14.74;81.52
66096;SHT31;53861;53.422;14.530;2024-02-21T11:46:55;15.48;79.61
66096;SHT31;53861;53.422;14.530;2024-02-21T11:49:25;13.58;83.00
66096;SHT31;53861;53.422;14.530;2024-02-21T11:51:58;13.44;85.79
66096;SHT31;53861;53.422;14.530;2024-02-21T11:54:26;13.64;84.21
66096;SHT31;53861;53.422;14.530;2024-02-21T11:56:54;13.53;84.86
66096;SHT31;53861;53.422;14.530;2024-02-21T11:59:21;14.66;82.61
66096;SHT31;53861;53.422;14.530;2024-02-21T12:01:48;13.74;82.85
66096;SHT31;53861;53.422;14.530;2024-02-21T12:04:20;13.61;83.85
66096;SHT31;53861;53.422;14.530;2024-02-21T12:06:49;13.65;83.91
66096;SHT31;53861;53.422;14.530;2024-02-21T12:09:17;13.37;84.80
66096;SHT31;53861;53.422;14.530;2024-02-21T12:11:44;12.99;85.35
66096;SHT31;53861;53.422;14.530;2024-02-21T12:14:16;12.87;86.04
66096;SHT31;53861;53.422;14.530;2024-02-21T12:16:44;12.38;87.43
66096;SHT31;53861;53.422;14.530;2024-02-21T12:19:14;12.26;86.95
66096;SHT31;53861;53.422;14.530;2024-02-21T12:21:47;11.92;87.97
66096;SHT31;53861;53.422;14.530;2024-02-21T12:24:17;11.80;89.19
66096;SHT31;53861;53.422;14.530;2024-02-21T12:26:47;11.46;89.83
66096;SHT31;53861;53.422;14.530;2024-02-21T12:29:15;11.34;88.26
66096;SHT31;53861;53.422;14.530;2024-02-21T12:31:42;12.35;88.15
66096;SHT31;53861;53.422;14.530;2024-02-21T12:34:09;12.20;87.20
66096;SHT31;53861;53.422;14.530;2024-02-21T12:36:41;12.14;86.76
66096;SHT31;53861;53.422;14.530;2024-02-21T12:39:10;11.50;87.92
66096;SHT31;53861;53.422;14.530;2024-02-21T12:41:38;11.30;88.68
66096;SHT31;53861;53.422;14.530;2024-02-21T12:44:07;11.90;87.80
66096;SHT31;53861;53.422;14.530;2024-02-21T12:46:34;11.54;87.40
66096;SHT31;53861;53.422;14.530;2024-02-21T12:49:01;12.57;87.08
66096;SHT31;53861;53.422;14.530;2024-02-21T12:51:29;12.65;86.14
66096;SHT31;53861;53.422;14.530;2024-02-21T12:53:58;12.05;86.54
66096;SHT31;53861;53.422;14.530;2024-02-21T12:56:27;11.59;86.07
66096;SHT31;53861;53.422;14.530;2024-02-21T12:58:55;11.43;86.98
66096;SHT31;53861;53.422;14.530;2024-02-21T13:01:23;12.08;86.63
66096;SHT31;53861;53.422;14.530;2024-02-21T13:03:50;11.75;86.35
66096;SHT31;53861;53.422;14.530;2024-02-21T13:06:17;12.46;85.55
66096;SHT31;53861;53.422;14.530;2024-02-21T13:08:45;14.46;82.13
66096;SHT31;53861;53.422;14.530;2024-02-21T13:11:13;13.16;82.60
66096;SHT31;53861;53.422;14.530;2024-02-21T13:13:42;12.49;82.53
66096;SHT31;53861;53.422;14.530;2024-02-21T13:16:09;12.80;82.58
66096;SHT31;53861;53.422;14.530;2024-02-21T13:18:37;12.35;84.51
66096;SHT31;53861;53.422;14.530;2024-02-21T13:21:05;12.38;83.62
66096;SHT31;53861;53.422;14.530;2024-02-21T13:23:33;11.97;84.45
66096;SHT31;53861;53.422;14.530;2024-02-21T13:26:00;12.24;84.11
66096;SHT31;53861;53.422;14.530;2024-02-21T13:28:30;12.29;83.47
66096;SHT31;53861;53.422;14.530;2024-02-21T13:30:59;13.51;81.40
66096;SHT31;53861;53.422;14.530;2024-02-21T13:33:26;13.07;82.04
66096;SHT31;53861;53.422;14.530;2024-02-21T13:35:54;12.41;83.56
66096;SHT31;53861;53.422;14.530;2024-02-21T13:38:21;11.91;84.32
66096;SHT31;53861;53.422;14.530;2024-02-21T13:40:50;12.43;83.86
66096;SHT31;53861;53.422;14.530;2024-02-21T13:43:17;12.77;82.70
66096;SHT31;53861;53.422;14.530;2024-02-21T13:45:55;13.69;81.04
66096;SHT31;53861;53.422;14.530;2024-02-21T13:48:24;12.36;83.71
66096;SHT31;53861;53.422;14.530;2024-02-21T13:50:52;12.15;85.18
66096;SHT31;53861;53.422;14.530;2024-02-21T13:53:20;12.38;84.68
66096;SHT31;53861;53.422;14.530;2024-02-21T13:55:50;14.10;81.62
66096;SHT31;53861;53.422;14.530;2024-02-21T13:58:18;14.32;77.12
66096;SHT31;53861;53.422;14.530;2024-02-21T14:00:46;12.83;82.16
66096;SHT31;53861;53.422;14.530;2024-02-21T14:03:13;12.36;83.56
66096;SHT31;53861;53.422;14.530;2024-02-21T14:05:41;12.26;84.25
66096;SHT31;53861;53.422;14.530;2024-02-21T14:08:09;11.73;85.80
66096;SHT31;53861;53.422;14.530;2024-02-21T14:10:36;11.99;85.08
66096;SHT31;53861;53.422;14.530;2024-02-21T14:13:04;12.65;84.04
66096;SHT31;53861;53.422;14.530;2024-02-21T14:15:31;17.84;71.14
66096;SHT31;53861;53.422;14.530;2024-02-21T14:17:58;21.10;64.68
66096;SHT31;53861;53.422;14.530;2024-02-21T14:20:26;20.02;63.33
66096;SHT31;53861;53.422;14.530;2024-02-21T14:22:54;15.52;73.36
66096;SHT31;53861;53.422;14.530;2024-02-21T14:25:22;14.32;75.48
66096;SHT31;53861;53.422;14.530;2024-02-21T14:27:49;13.30;78.74
66096;SHT31;53861;53.422;14.530;2024-02-21T14:30:17;12.86;80.53
66096;SHT31;53861;53.422;14.530;2024-02-21T14:32:44;11.98;83.61
66096;SHT31;53861;53.422;14.530;2024-02-21T14:35:12;11.85;84.38
66096;SHT31;53861;53.422;14.530;2024-02-21T14:37:39;12.18;84.97
66096;SHT31;53861;53.422;14.530;2024-02-21T14:40:09;12.26;83.52
66096;SHT31;53861;53.422;14.530;2024-02-21T14:42:36;14.53;80.43
66096;SHT31;53861;53.422;14.530;2024-02-21T14:45:04;15.66;74.11
66096;SHT31;53861;53.422;14.530;2024-02-21T14:47:32;14.56;76.61
66096;SHT31;53861;53.422;14.530;2024-02-21T14:50:01;12.89;79.77
66096;SHT31;53861;53.422;14.530;2024-02-21T14:52:29;12.57;82.20
66096;SHT31;53861;53.422;14.530;2024-02-21T14:54:57;12.43;83.29
66096;SHT31;53861;53.422;14.530;2024-02-21T14:57:26;12.10;83.75
66096;SHT31;53861;53.422;14.530;2024-02-21T14:59:53;11.87;85.52
66096;SHT31;53861;53.422;14.530;2024-02-21T15:02:22;12.33;83.49
66096;SHT31;53861;53.422;14.530;2024-02-21T15:04:49;13.34;82.62
66096;SHT31;53861;53.422;14.530;2024-02-21T15:07:17;13.26;80.96
66096;SHT31;53861;53.422;14.530;2024-02-21T15:09:45;12.69;81.28
66096;SHT31;53861;53.422;14.530;2024-02-21T15:12:13;11.78;85.12
66096;SHT31;53861;53.422;14.530;2024-02-21T15:14:42;11.63;84.92
66096;SHT31;53861;53.422;14.530;2024-02-21T15:17:10;11.60;85.01
66096;SHT31;53861;53.422;14.530;2024-02-21T15:19:37;11.61;85.94
66096;SHT31;53861;53.422;14.530;2024-02-21T15:22:09;11.71;85.84
66096;SHT31;53861;53.422;14.530;2024-02-21T15:24:38;11.20;87.35
66096;SHT31;53861;53.422;14.530;2024-02-21T15:27:06;11.05;88.00
66096;SHT31;53861;53.422;14.530;2024-02-21T15:29:34;11.09;87.88
66096;SHT31;53861;53.422;14.530;2024-02-21T15:32:03;10.98;87.79